createdAt,value
2019-04-25T00:00:47.869Z,7.75
2019-04-25T00:03:36.793Z,7.80
2019-04-25T00:06:05.566Z,7.37
2019-04-25T00:08:34.163Z,7.83
2019-04-25T00:11:04.076Z,7.70
2019-04-25T00:13:33.043Z,8.15
2019-04-25T00:16:01.900Z,8.20
2019-04-25T00:18:31.898Z,7.90
2019-04-25T00:21:04.961Z,6.80
2019-04-25T00:23:34.887Z,7.58
2019-04-25T00:26:07.891Z,7.55
2019-04-25T00:28:37.079Z,7.75
2019-04-25T00:31:06.269Z,7.70
2019-04-25T00:33:34.854Z,8.08
2019-04-25T00:36:03.880Z,7.45
2019-04-25T00:38:32.451Z,6.90
2019-04-25T00:41:01.722Z,7.40
2019-04-25T00:43:32.330Z,8.18
2019-04-25T00:46:01.837Z,7.87
2019-04-25T00:48:36.284Z,7.72
2019-04-25T00:51:04.994Z,7.45
2019-04-25T00:53:33.592Z,7.08
2019-04-25T00:56:02.186Z,7.58
2019-04-25T00:58:43.073Z,8.18
2019-04-25T01:01:13.239Z,7.05
2019-04-25T01:03:44.137Z,7.58
2019-04-25T01:06:13.178Z,7.55
2019-04-25T01:08:41.716Z,7.75
2019-04-25T01:11:11.525Z,7.65
2019-04-25T01:13:40.206Z,7.58
2019-04-25T01:16:09.497Z,7.67
2019-04-25T01:18:39.341Z,7.37
2019-04-25T01:21:07.967Z,7.47
2019-04-25T01:23:36.556Z,6.85
2019-04-25T01:26:06.531Z,7.80
2019-04-25T01:28:35.523Z,7.78
2019-04-25T01:31:06.042Z,8.00
2019-04-25T01:33:34.662Z,7.33
2019-04-25T01:36:13.718Z,6.35
2019-04-25T01:38:50.889Z,7.53
2019-04-25T01:41:21.176Z,7.78
2019-04-25T01:43:53.251Z,8.28
2019-04-25T01:46:21.970Z,7.37
2019-04-25T01:48:50.652Z,7.55
2019-04-25T01:51:19.222Z,7.30
2019-04-25T01:53:49.016Z,8.20
2019-04-25T01:56:17.784Z,7.80
2019-04-25T01:58:46.358Z,7.75
2019-04-25T02:01:15.224Z,7.42
2019-04-25T02:03:44.202Z,7.50
2019-04-25T02:06:13.633Z,7.83
2019-04-25T02:08:43.888Z,7.20
2019-04-25T02:11:33.925Z,6.03
2019-04-25T02:14:04.831Z,7.70
2019-04-25T02:16:33.604Z,8.58
2019-04-25T02:19:04.025Z,7.92
2019-04-25T02:21:33.490Z,7.55
2019-04-25T02:24:03.900Z,8.03
2019-04-25T02:26:33.967Z,8.05
2019-04-25T02:29:04.539Z,6.95
2019-04-25T02:31:34.773Z,8.00
2019-04-25T02:34:07.818Z,8.43
2019-04-25T02:36:34.738Z,8.13
2019-04-25T02:39:09.125Z,7.70
2019-04-25T02:41:38.411Z,8.38
2019-04-25T02:44:09.933Z,8.00
2019-04-25T02:46:41.697Z,8.23
2019-04-25T02:49:34.893Z,8.73
2019-04-25T02:51:55.038Z,8.03
2019-04-25T02:54:24.527Z,7.83
2019-04-25T02:56:54.761Z,8.55
2019-04-25T02:59:25.364Z,8.98
2019-04-25T03:01:54.753Z,8.13
2019-04-25T03:04:25.317Z,8.03
2019-04-25T03:06:55.451Z,7.53
2019-04-25T03:09:25.021Z,8.08
2019-04-25T03:11:54.794Z,9.13
2019-04-25T03:14:26.414Z,8.65
2019-04-25T03:16:54.327Z,8.68
2019-04-25T03:19:30.704Z,7.67
2019-04-25T03:22:06.822Z,9.18
2019-04-25T03:24:35.166Z,8.90
2019-04-25T03:27:05.181Z,8.85
2019-04-25T03:29:35.239Z,8.08
2019-04-25T03:32:09.231Z,8.40
2019-04-25T03:34:35.181Z,8.08
2019-04-25T03:37:05.294Z,8.48
2019-04-25T03:39:34.143Z,8.30
2019-04-25T03:42:04.887Z,7.53
2019-04-25T03:44:33.738Z,6.72
2019-04-25T03:47:05.277Z,9.18
2019-04-25T03:49:33.660Z,7.30
2019-04-25T03:52:05.022Z,8.80
2019-04-25T03:54:33.905Z,8.28
2019-04-25T03:57:04.872Z,8.50
2019-04-25T03:59:33.638Z,8.40
2019-04-25T04:02:05.819Z,7.62
2019-04-25T04:04:33.644Z,7.60
2019-04-25T04:07:07.404Z,8.03
2019-04-25T04:09:34.361Z,8.85
2019-04-25T04:12:04.308Z,8.43
2019-04-25T04:14:33.828Z,9.13
2019-04-25T04:17:10.725Z,7.92
2019-04-25T04:19:45.233Z,9.00
2019-04-25T04:22:31.810Z,8.70
2019-04-25T04:25:03.678Z,8.80
2019-04-25T04:27:33.646Z,8.93
2019-04-25T04:30:04.120Z,8.68
2019-04-25T04:32:34.009Z,8.95
2019-04-25T04:35:03.481Z,8.80
2019-04-25T04:37:33.283Z,8.65
2019-04-25T04:40:03.574Z,8.93
2019-04-25T04:42:33.640Z,8.63
2019-04-25T04:45:03.587Z,9.93
2019-04-25T04:47:33.294Z,9.35
2019-04-25T04:50:03.897Z,8.73
2019-04-25T04:52:34.003Z,9.55
2019-04-25T04:55:08.391Z,8.40
2019-04-25T04:57:35.999Z,9.23
2019-04-25T05:00:04.766Z,8.33
2019-04-25T05:02:50.805Z,8.83
2019-04-25T05:05:21.005Z,9.20
2019-04-25T05:07:51.222Z,9.23
2019-04-25T05:10:20.094Z,8.63
2019-04-25T05:12:49.746Z,8.65
2019-04-25T05:15:19.165Z,8.63
2019-04-25T05:17:48.750Z,9.33
2019-04-25T05:20:18.716Z,8.95
2019-04-25T05:22:47.508Z,8.20
2019-04-25T05:25:17.639Z,8.85
2019-04-25T05:27:59.529Z,7.62
2019-04-25T05:30:19.147Z,7.85
2019-04-25T05:32:47.936Z,7.90
2019-04-25T05:35:16.623Z,8.48
2019-04-25T05:37:46.203Z,8.15
2019-04-25T05:40:16.270Z,8.20
2019-04-25T05:43:03.320Z,7.95
2019-04-25T05:45:34.030Z,8.23
2019-04-25T05:48:04.260Z,7.60
2019-04-25T05:50:33.894Z,9.70
2019-04-25T05:53:04.172Z,7.78
2019-04-25T05:55:34.192Z,7.92
2019-04-25T05:58:03.842Z,8.70
2019-04-25T06:00:34.128Z,7.62
2019-04-25T06:03:03.610Z,7.80
2019-04-25T06:05:33.487Z,7.67
2019-04-25T06:08:04.100Z,8.10
2019-04-25T06:10:34.422Z,7.37
2019-04-25T06:13:05.679Z,7.55
2019-04-25T06:15:35.589Z,7.30
2019-04-25T06:18:21.215Z,7.58
2019-04-25T06:20:50.761Z,7.72
2019-04-25T06:23:29.689Z,7.45
2019-04-25T06:25:58.389Z,7.55
2019-04-25T06:28:28.603Z,8.18
2019-04-25T06:30:57.250Z,7.80
2019-04-25T06:33:26.235Z,8.90
2019-04-25T06:35:56.919Z,7.75
2019-04-25T06:38:27.169Z,7.85
2019-04-25T06:40:55.847Z,7.70
2019-04-25T06:43:25.475Z,7.12
2019-04-25T06:45:55.990Z,7.30
2019-04-25T06:48:29.059Z,7.50
2019-04-25T06:50:57.704Z,7.35
2019-04-25T06:53:26.945Z,7.47
2019-04-25T06:55:55.542Z,8.00
2019-04-25T06:58:26.054Z,7.25
2019-04-25T07:00:58.751Z,7.10
2019-04-25T07:03:25.732Z,7.17
2019-04-25T07:05:54.635Z,7.17
2019-04-25T07:08:25.500Z,7.55
2019-04-25T07:10:53.971Z,7.45
2019-04-25T07:13:24.808Z,7.62
2019-04-25T07:15:54.241Z,7.90
2019-04-25T07:18:25.545Z,7.53
2019-04-25T07:20:53.579Z,6.50
2019-04-25T07:23:23.667Z,7.20
2019-04-25T07:25:54.269Z,6.92
2019-04-25T07:28:29.025Z,6.95
2019-04-25T07:31:03.435Z,6.80
2019-04-25T07:33:49.830Z,6.50
2019-04-25T07:36:18.680Z,6.97
2019-04-25T07:38:47.272Z,6.78
2019-04-25T07:41:16.391Z,6.65
2019-04-25T07:43:44.979Z,6.10
2019-04-25T07:46:13.804Z,7.17
2019-04-25T07:48:43.829Z,6.42
2019-04-25T07:51:15.886Z,6.22
2019-04-25T07:53:43.655Z,6.60
2019-04-25T07:56:14.106Z,6.40
2019-04-25T07:58:50.510Z,6.92
2019-04-25T08:01:14.569Z,6.25
2019-04-25T08:03:43.970Z,6.67
2019-04-25T08:06:13.775Z,6.83
2019-04-25T08:08:43.661Z,6.17
2019-04-25T08:11:14.086Z,6.53
2019-04-25T08:13:50.309Z,5.83
2019-04-25T08:16:20.523Z,6.65
2019-04-25T08:18:50.006Z,6.95
2019-04-25T08:21:18.855Z,5.47
2019-04-25T08:23:48.564Z,5.58
2019-04-25T08:26:17.699Z,6.53
2019-04-25T08:28:55.019Z,6.35
2019-04-25T08:31:16.696Z,6.10
2019-04-25T08:33:46.588Z,6.08
2019-04-25T08:36:15.697Z,6.22
2019-04-25T08:38:44.704Z,5.80
2019-04-25T08:41:14.068Z,5.95
2019-04-25T08:43:44.956Z,5.58
2019-04-25T08:46:14.021Z,6.12
2019-04-25T08:49:04.715Z,5.65
2019-04-25T08:51:37.864Z,6.35
2019-04-25T08:54:24.555Z,6.17
2019-04-25T08:56:54.782Z,5.47
2019-04-25T08:59:46.038Z,5.40
2019-04-25T09:02:25.063Z,6.03
2019-04-25T09:04:58.478Z,5.17
2019-04-25T09:07:27.116Z,5.30
2019-04-25T09:09:55.834Z,5.97
2019-04-25T09:12:24.413Z,5.87
2019-04-25T09:14:54.190Z,5.37
2019-04-25T09:17:24.301Z,5.90
2019-04-25T09:19:54.185Z,5.20
2019-04-25T09:22:24.205Z,4.85
2019-04-25T09:24:54.086Z,5.28
2019-04-25T09:27:23.494Z,5.35
2019-04-25T09:29:52.179Z,5.40
2019-04-25T09:32:20.756Z,4.85
2019-04-25T09:34:50.098Z,4.58
2019-04-25T09:37:19.071Z,4.58
2019-04-25T09:39:49.285Z,5.50
2019-04-25T09:42:18.004Z,5.42
2019-04-25T09:45:03.753Z,5.53
2019-04-25T09:47:33.607Z,5.12
2019-04-25T09:50:04.192Z,5.40
2019-04-25T09:52:34.027Z,5.22
2019-04-25T09:55:04.267Z,5.50
2019-04-25T09:57:41.091Z,5.75
2019-04-25T10:00:13.253Z,5.25
2019-04-25T10:02:42.605Z,6.42
2019-04-25T10:05:11.316Z,5.12
2019-04-25T10:07:40.572Z,6.33
2019-04-25T10:10:09.413Z,5.25
2019-04-25T10:12:38.791Z,5.65
2019-04-25T10:15:28.108Z,5.85
2019-04-25T10:17:56.697Z,5.47
2019-04-25T10:20:25.331Z,5.65
2019-04-25T10:22:54.043Z,5.47
2019-04-25T10:25:23.418Z,5.80
2019-04-25T10:27:53.717Z,4.85
2019-04-25T10:30:24.240Z,5.10
2019-04-25T10:32:54.622Z,4.80
2019-04-25T10:35:23.885Z,5.70
2019-04-25T10:37:53.738Z,5.25
2019-04-25T10:40:25.075Z,5.30
2019-04-25T10:42:54.689Z,5.95
2019-04-25T10:45:25.798Z,5.47
2019-04-25T10:47:55.267Z,5.60
2019-04-25T10:50:23.958Z,5.17
2019-04-25T10:52:54.265Z,5.97
2019-04-25T10:55:23.453Z,5.58
2019-04-25T10:57:53.841Z,5.25
2019-04-25T11:00:31.935Z,5.30
2019-04-25T11:03:03.887Z,6.05
2019-04-25T11:05:34.274Z,5.22
2019-04-25T11:08:04.317Z,5.35
2019-04-25T11:10:34.380Z,4.85
2019-04-25T11:13:04.064Z,5.33
2019-04-25T11:15:33.987Z,5.50
2019-04-25T11:18:04.181Z,6.00
2019-04-25T11:20:33.848Z,5.90
2019-04-25T11:23:03.839Z,5.60
2019-04-25T11:25:34.065Z,5.30
2019-04-25T11:28:05.166Z,5.70
2019-04-25T11:30:33.842Z,5.75
2019-04-25T11:33:03.662Z,5.95
2019-04-25T11:35:32.369Z,5.62
2019-04-25T11:38:03.486Z,5.60
2019-04-25T11:40:36.347Z,8.23
2019-04-25T11:43:05.561Z,6.15
2019-04-25T11:45:37.730Z,6.20
2019-04-25T11:50:36.888Z,6.20
2019-04-25T11:53:04.876Z,6.15
2019-04-25T11:55:33.664Z,5.70
2019-04-25T11:58:03.680Z,5.58
2019-04-25T12:00:33.853Z,6.20
2019-04-25T12:03:03.683Z,5.75
2019-04-25T12:05:32.291Z,5.87
2019-04-25T12:08:01.032Z,6.00
2019-04-25T12:10:30.415Z,6.12
2019-04-25T12:12:58.993Z,5.87
2019-04-25T12:15:27.727Z,5.65
2019-04-25T12:17:56.418Z,5.80
2019-04-25T12:20:25.107Z,6.05
2019-04-25T12:23:04.155Z,5.60
2019-04-25T12:25:23.921Z,5.60
2019-04-25T12:27:53.849Z,5.37
2019-04-25T12:30:36.376Z,5.10
2019-04-25T12:32:53.876Z,5.62
2019-04-25T12:35:24.864Z,5.58
2019-04-25T12:37:54.110Z,6.67
2019-04-25T12:40:24.157Z,5.85
2019-04-25T12:42:54.383Z,5.95
2019-04-25T12:45:24.870Z,9.45
2019-04-25T12:47:58.868Z,6.83
2019-04-25T12:52:54.740Z,6.70
2019-04-25T12:55:24.078Z,6.90
2019-04-25T12:57:53.642Z,7.00
2019-04-25T13:00:24.760Z,6.78
2019-04-25T13:02:54.022Z,6.37
2019-04-25T13:05:24.455Z,7.08
2019-04-25T13:07:56.665Z,6.55
2019-04-25T13:10:23.602Z,7.05
2019-04-25T13:12:55.239Z,7.58
2019-04-25T13:15:25.243Z,8.63
2019-04-25T13:17:53.662Z,9.48
2019-04-25T13:20:22.731Z,7.10
2019-04-25T13:22:51.303Z,9.68
2019-04-25T13:25:21.803Z,6.67
2019-04-25T13:27:58.465Z,7.72
2019-04-25T13:30:28.779Z,7.83
2019-04-25T13:33:05.023Z,6.62
2019-04-25T13:35:35.302Z,8.98
2019-04-25T13:38:03.941Z,6.85
2019-04-25T13:40:32.546Z,6.72
2019-04-25T13:43:01.490Z,6.80
2019-04-25T13:45:30.502Z,6.65
2019-04-25T13:47:59.183Z,7.50
2019-04-25T13:50:27.903Z,7.10
2019-04-25T13:52:56.698Z,7.08
2019-04-25T13:55:25.399Z,6.92
2019-04-25T13:57:54.850Z,6.08
2019-04-25T14:00:24.871Z,6.30
2019-04-25T14:02:54.517Z,7.33
2019-04-25T14:05:24.910Z,6.30
2019-04-25T14:07:54.532Z,7.30
2019-04-25T14:10:25.025Z,6.78
2019-04-25T14:12:53.701Z,6.15
2019-04-25T14:15:25.149Z,6.30
2019-04-25T14:18:04.886Z,5.78
2019-04-25T14:20:35.463Z,8.00
2019-04-25T14:23:05.487Z,5.90
2019-04-25T14:25:35.221Z,5.90
2019-04-25T14:28:06.595Z,6.22
2019-04-25T14:30:36.029Z,5.30
2019-04-25T14:33:04.737Z,6.05
2019-04-25T14:35:33.745Z,5.40
2019-04-25T14:38:03.856Z,7.62
2019-04-25T14:40:33.222Z,5.90
2019-04-25T14:43:01.983Z,6.45
2019-04-25T14:45:41.707Z,6.12
2019-04-25T14:48:00.890Z,7.85
2019-04-25T14:50:30.598Z,5.65
2019-04-25T14:52:59.385Z,6.28
2019-04-25T14:55:45.963Z,5.97
2019-04-25T14:58:16.208Z,6.35
2019-04-25T15:00:46.859Z,6.30
2019-04-25T15:03:15.749Z,6.60
2019-04-25T15:05:44.355Z,6.25
2019-04-25T15:08:13.074Z,6.50
2019-04-25T15:10:41.632Z,6.50
2019-04-25T15:13:10.874Z,6.22
2019-04-25T15:15:39.606Z,7.75
2019-04-25T15:18:08.173Z,6.47
2019-04-25T15:20:36.821Z,6.20
2019-04-25T15:23:05.783Z,6.40
2019-04-25T15:25:34.472Z,7.53
2019-04-25T15:28:03.093Z,6.03
2019-04-25T15:30:33.301Z,6.40
2019-04-25T15:33:01.982Z,7.05
2019-04-25T15:35:32.208Z,6.60
2019-04-25T15:38:08.696Z,6.78
2019-04-25T15:40:41.166Z,8.25
2019-04-25T15:43:11.283Z,5.97
2019-04-25T15:45:50.775Z,6.20
2019-04-25T15:48:19.404Z,6.20
2019-04-25T15:50:48.215Z,7.37
2019-04-25T15:53:16.834Z,5.92
2019-04-25T15:55:45.600Z,6.00
2019-04-25T15:58:14.196Z,5.28
2019-04-25T16:00:42.799Z,5.67
2019-04-25T16:03:12.251Z,5.55
2019-04-25T16:05:40.831Z,6.60
2019-04-25T16:08:09.515Z,6.50
2019-04-25T16:10:38.078Z,5.65
2019-04-25T16:13:06.978Z,5.30
2019-04-25T16:15:36.119Z,6.08
2019-04-25T16:18:05.694Z,4.70
2019-04-25T16:20:34.344Z,5.97
2019-04-25T16:23:03.236Z,5.60
2019-04-25T16:25:31.887Z,6.25
2019-04-25T16:28:00.480Z,5.17
2019-04-25T16:30:30.789Z,5.47
2019-04-25T16:32:59.639Z,5.83
2019-04-25T16:35:29.638Z,5.15
2019-04-25T16:37:58.748Z,6.60
2019-04-25T16:40:27.551Z,6.83
2019-04-25T16:42:57.470Z,6.05
2019-04-25T16:45:26.536Z,5.90
2019-04-25T16:47:55.088Z,5.70
2019-04-25T16:50:24.330Z,7.60
2019-04-25T16:52:53.252Z,5.87
2019-04-25T16:55:22.171Z,5.60
2019-04-25T16:57:51.143Z,5.90
2019-04-25T17:00:32.115Z,6.67
2019-04-25T17:03:00.883Z,6.03
2019-04-25T17:05:32.432Z,6.12
2019-04-25T17:08:01.023Z,6.05
2019-04-25T17:10:30.310Z,6.60
2019-04-25T17:13:00.550Z,6.22
2019-04-25T17:15:38.330Z,6.80
2019-04-25T17:18:08.772Z,6.40
2019-04-25T17:20:57.091Z,6.83
2019-04-25T17:23:25.738Z,6.40
2019-04-25T17:25:54.734Z,6.70
2019-04-25T17:28:23.744Z,7.35
2019-04-25T17:30:56.570Z,6.42
2019-04-25T17:33:35.939Z,7.25
2019-04-25T17:36:09.058Z,6.70
2019-04-25T17:38:42.398Z,6.05
2019-04-25T17:41:11.128Z,6.45
2019-04-25T17:43:39.818Z,7.28
2019-04-25T17:46:11.018Z,6.78
2019-04-25T17:48:40.470Z,6.50
2019-04-25T17:51:09.177Z,8.58
2019-04-25T17:53:37.802Z,6.70
2019-04-25T17:56:06.495Z,6.78
2019-04-25T17:58:35.067Z,6.67
2019-04-25T18:01:04.879Z,7.08
2019-04-25T18:03:33.837Z,6.90
2019-04-25T18:06:02.473Z,7.33
2019-04-25T18:08:31.725Z,6.87
2019-04-25T18:11:00.289Z,6.37
2019-04-25T18:13:30.186Z,7.80
2019-04-25T18:16:16.490Z,7.03
2019-04-25T18:18:49.490Z,7.20
2019-04-25T18:21:25.788Z,7.10
2019-04-25T18:23:56.947Z,6.78
2019-04-25T18:26:43.535Z,7.00
2019-04-25T18:29:16.336Z,6.87
2019-04-25T18:31:44.994Z,7.47
2019-04-25T18:34:22.038Z,7.25
2019-04-25T18:37:08.627Z,7.25
2019-04-25T18:39:39.814Z,7.25
2019-04-25T18:42:25.221Z,7.92
2019-04-25T18:44:53.828Z,7.62
2019-04-25T18:47:22.387Z,7.47
2019-04-25T18:49:51.037Z,9.00
2019-04-25T18:52:21.275Z,8.48
2019-04-25T18:55:00.323Z,8.45
2019-04-25T18:57:30.520Z,8.20
2019-04-25T19:00:16.899Z,9.28
2019-04-25T19:02:56.087Z,8.55
2019-04-25T19:05:26.813Z,9.48
2019-04-25T19:07:55.428Z,8.85
2019-04-25T19:10:24.105Z,8.93
2019-04-25T19:12:52.782Z,8.68
2019-04-25T19:15:21.976Z,8.53
2019-04-25T19:17:50.555Z,9.15
2019-04-25T19:20:19.369Z,9.08
2019-04-25T19:22:48.342Z,9.78
2019-04-25T19:25:17.100Z,10.15
2019-04-25T19:27:46.512Z,9.78
2019-04-25T19:30:17.465Z,10.15
2019-04-25T19:32:47.022Z,9.95
2019-04-25T19:35:15.777Z,10.03
2019-04-25T19:37:44.807Z,10.13
2019-04-25T19:40:24.915Z,9.65
2019-04-25T19:42:57.827Z,10.28
2019-04-25T19:45:26.415Z,11.83
2019-04-25T19:47:55.064Z,10.08
2019-04-25T19:50:23.771Z,10.23
2019-04-25T19:52:52.365Z,10.38
2019-04-25T19:55:21.083Z,10.60
2019-04-25T19:57:50.319Z,11.00
2019-04-25T20:00:19.372Z,11.05
2019-04-25T20:02:50.813Z,11.10
2019-04-25T20:05:21.210Z,11.55
2019-04-25T20:07:57.546Z,10.93
2019-04-25T20:10:36.597Z,11.10
2019-04-25T20:13:05.583Z,10.98
2019-04-25T20:15:34.151Z,10.85
2019-04-25T20:18:02.821Z,11.60
2019-04-25T20:20:31.552Z,11.00
2019-04-25T20:23:00.973Z,12.45
2019-04-25T20:25:29.634Z,11.12
2019-04-25T20:27:58.269Z,12.20
2019-04-25T20:30:26.839Z,10.82
2019-04-25T20:32:55.687Z,10.88
2019-04-25T20:35:24.342Z,12.23
2019-04-25T20:37:54.454Z,11.75
2019-04-25T20:40:23.269Z,11.75
2019-04-25T20:42:52.020Z,11.45
2019-04-25T20:45:20.806Z,13.20
2019-04-25T20:47:50.033Z,11.57
2019-04-25T20:50:18.567Z,11.22
2019-04-25T20:52:47.520Z,12.23
2019-04-25T20:55:17.266Z,11.38
2019-04-25T20:57:46.921Z,12.40
2019-04-25T21:00:20.779Z,13.03
2019-04-25T21:02:50.297Z,11.73
2019-04-25T21:05:18.872Z,11.57
2019-04-25T21:07:47.764Z,11.80
2019-04-25T21:10:16.384Z,11.10
2019-04-25T21:12:45.067Z,12.63
2019-04-25T21:15:15.357Z,13.68
2019-04-25T21:17:48.588Z,12.80
2019-04-25T21:20:17.223Z,12.82
2019-04-25T21:22:45.875Z,13.15
2019-04-25T21:25:14.581Z,12.58
2019-04-25T21:27:43.144Z,12.95
2019-04-25T21:30:12.010Z,12.45
2019-04-25T21:32:52.305Z,12.37
2019-04-25T21:35:21.706Z,12.73
2019-04-25T21:37:51.100Z,12.78
2019-04-25T21:40:38.655Z,12.18
2019-04-25T21:43:09.159Z,11.65
2019-04-25T21:45:38.025Z,12.73
2019-04-25T21:48:06.823Z,13.10
2019-04-25T21:50:35.711Z,12.25
2019-04-25T21:53:04.620Z,13.18
2019-04-25T21:55:33.387Z,12.85
2019-04-25T21:58:02.268Z,12.00
2019-04-25T22:00:44.712Z,12.78
2019-04-25T22:03:14.128Z,12.85
2019-04-25T22:05:42.967Z,12.45
2019-04-25T22:08:11.575Z,12.50
2019-04-25T22:10:40.240Z,12.25
2019-04-25T22:13:16.200Z,13.00
2019-04-25T22:15:39.132Z,12.65
2019-04-25T22:18:08.663Z,12.65
2019-04-25T22:20:37.251Z,12.25
2019-04-25T22:23:06.736Z,12.45
2019-04-25T22:25:35.945Z,12.82
2019-04-25T22:28:07.216Z,12.93
2019-04-25T22:30:37.519Z,12.73
2019-04-25T22:33:16.298Z,12.75
2019-04-25T22:35:46.549Z,12.65
2019-04-25T22:38:15.334Z,12.70
2019-04-25T22:40:43.944Z,12.75
2019-04-25T22:43:12.642Z,13.00
2019-04-25T22:45:42.573Z,12.58
2019-04-25T22:48:11.179Z,14.13
2019-04-25T22:50:39.930Z,13.03
2019-04-25T22:53:20.877Z,12.85
2019-04-25T22:55:38.714Z,12.75
2019-04-25T22:58:07.827Z,12.45
2019-04-25T23:00:38.220Z,12.78
2019-04-25T23:03:11.853Z,12.50
2019-04-25T23:05:45.058Z,12.58
2019-04-25T23:08:13.947Z,12.03
2019-04-25T23:10:42.563Z,12.93
2019-04-25T23:13:11.586Z,12.25
2019-04-25T23:15:40.642Z,12.40
2019-04-25T23:18:09.892Z,12.60
2019-04-25T23:20:39.168Z,12.88
2019-04-25T23:23:08.300Z,13.10
2019-04-25T23:25:55.103Z,12.40
2019-04-25T23:28:27.128Z,12.63
